Share

Aultbea, United Kingdom

3:02 PM BST on April 23, 2014 (GMT +0100)
Strath (IROSSSHI2) Elev 32 ft | 57.73 °N, 5.70 °W | Change Station

Current weather conditions updated 2 minutes ago

Mostly Cloudy
Mostly Cloudy
62.4 °F
Feels Like 62.4 °F
N
5.0
Wind Variable Wind from SSW
Gusts 9.0 mph
Sunrise 5:51 AM
Sunset 8:51 PM
Moon Waning Crescent

Today is forecast to be nearly the same temperature as yesterday. Chance of afternoon showers.

Pressure 29.89 in
Visibility 6.2 miles
Clouds Few 2800 ft
Scattered Clouds 4200 ft
Mostly Cloudy 4800 ft
Dew Point 44 °F
Humidity 51%
Rainfall 0.00 in
Snow Depth Not available.
UV 3 out of 16
Pollen Not available.
Air Quality Not available.
Flu Activity Not available.
METAR EGPO 231350Z 14007KT 9999 FEW028 SCT042 BKN048 14/09 Q1012

More Conditions Fewer Conditions

Pressure 29.89 in
Visibility 6.2 miles
Clouds Few 2800 ft
Scattered Clouds 4200 ft
Mostly Cloudy 4800 ft
Dew Point 44 °F
Humidity 51%
Rainfall 0.00 in
Snow Depth Not available.
UV 3 out of 16
Pollen Not available.
Air Quality Not available.
Flu Activity Not available.
METAR EGPO 231350Z 14007KT 9999 FEW028 SCT042 BKN048 14/09 Q1012

More Conditions Fewer Conditions

10-Day Weather Forecast

Almanac

Astronomy

Apr. 23, 2014 Rise Set
Actual Time 5:51 AM BST 8:51 PM BST
Civil Twilight 5:06 AM BST 9:37 PM BST
Nautical Twilight 4:05 AM BST 10:38 PM BST
Astronomical Twilight 2:36 AM BST 12:12 AM BST
Moon 3:34 AM BST 1:27 PM BST
Length of Visible Light 16h 30m
Length of Day
15h 00m
Tomorrow will be 4m 50s longer.
Waning Crescent, 36% of the Moon is Illuminated
Today
Waning Crescent
Apr 29
New
May 6
First Quarter
May 14
Full
May 21
Last Quarter

Yesterday's Extremes

Country Highs Country Lows

Community

  • spring flowers
    spring flowers
  • Earth Day Spectrum Ove' Blue
    Earth Day Spectrum Ove' Blue
  • BARN B&W
    BARN B&W
  • April Sunset
    April Sunset
  • Waiting..
    Waiting..

WunderPhotos

Upload Photos

1,704,294 photos uploaded!

Nearby

Snow Depth

Not available.

Coastal Water Temperatures

Place Temperature
No Stations Reporting

Earthquake Activity

City Distance Mag. Time & Date
No recent earthquake activity has been reported nearby.
Minimum magnitude displayed is 2.5.

Nearby Weather Stations

Station Location Temp. Dew Point Humidity Wind Precip. Elev Updated Type
Greenstone Point, Laide 57.2 °F 50 °F 77% East  at  2.0 mph 0.00 in / hr 23 ft 12:20 PM BST Normal
Strath, Gairloch 62.4 °F 44 °F 51% SSW  at  5.0 mph 0.00 in / hr 32 ft 3:00 PM BST Normal
Badbea, Dundonnell, Dundonnell 63.1 °F 46 °F 54% NE  at  3.0 mph 0.00 in / hr 60 ft 3:00 PM BST Normal
Cromasaig,Kinlochewe,Scotland, Kinlochewe 61.5 °F 46 °F 56% NE  at  0.7 mph 0.00 in / hr 160 ft 3:00 PM BST Normal

Show More Stations Show Fewer Stations

What do you think?

We're not finished. Please let us know what you like, what you don't like, and what you are still missing.